sensor_id;sensor_type;location;lat;lon;timestamp;pressure;altitude;pressure_sealevel;temperature;humidity
61786;BME280;47692;53.714;11.372;2023-05-29T00:02:00;101614.78;;;9.90;95.86
61786;BME280;47692;53.714;11.372;2023-05-29T00:04:26;101619.13;;;9.91;96.58
61786;BME280;47692;53.714;11.372;2023-05-29T00:06:51;101626.97;;;9.86;96.30
61786;BME280;47692;53.714;11.372;2023-05-29T00:09:17;101624.38;;;9.82;96.84
61786;BME280;47692;53.714;11.372;2023-05-29T00:11:43;101619.16;;;9.82;97.99
61786;BME280;47692;53.714;11.372;2023-05-29T00:14:08;101621.81;;;9.74;98.40
61786;BME280;47692;53.714;11.372;2023-05-29T00:16:37;101620.94;;;9.80;98.60
61786;BME280;47692;53.714;11.372;2023-05-29T00:19:03;101627.88;;;9.79;99.15
61786;BME280;47692;53.714;11.372;2023-05-29T00:21:28;101624.41;;;9.79;98.84
61786;BME280;47692;53.714;11.372;2023-05-29T00:23:54;101627.91;;;9.72;99.41
61786;BME280;47692;53.714;11.372;2023-05-29T00:26:19;101626.19;;;9.67;99.94
61786;BME280;47692;53.714;11.372;2023-05-29T00:28:44;101632.28;;;9.68;100.00
61786;BME280;47692;53.714;11.372;2023-05-29T00:31:10;101642.75;;;9.60;100.00
61786;BME280;47692;53.714;11.372;2023-05-29T00:33:36;101635.78;;;9.61;100.00
61786;BME280;47692;53.714;11.372;2023-05-29T00:36:02;101636.63;;;9.64;100.00
61786;BME280;47692;53.714;11.372;2023-05-29T00:38:27;101654.03;;;9.62;100.00
61786;BME280;47692;53.714;11.372;2023-05-29T00:40:52;101649.69;;;9.63;100.00
61786;BME280;47692;53.714;11.372;2023-05-29T00:43:18;101658.41;;;9.59;100.00
61786;BME280;47692;53.714;11.372;2023-05-29T00:45:43;101662.75;;;9.57;100.00
61786;BME280;47692;53.714;11.372;2023-05-29T00:48:09;101661.88;;;9.53;100.00
61786;BME280;47692;53.714;11.372;2023-05-29T00:50:34;101661.00;;;9.51;100.00
61786;BME280;47692;53.714;11.372;2023-05-29T00:53:01;101662.78;;;9.49;100.00
61786;BME280;47692;53.714;11.372;2023-05-29T00:55:28;101663.63;;;9.49;100.00
61786;BME280;47692;53.714;11.372;2023-05-29T00:57:53;101662.78;;;9.49;100.00
61786;BME280;47692;53.714;11.372;2023-05-29T01:00:19;101673.22;;;9.43;100.00
61786;BME280;47692;53.714;11.372;2023-05-29T01:02:45;101670.59;;;9.44;100.00
61786;BME280;47692;53.714;11.372;2023-05-29T01:05:11;101679.28;;;9.42;100.00
61786;BME280;47692;53.714;11.372;2023-05-29T01:07:37;101675.81;;;9.38;100.00
61786;BME280;47692;53.714;11.372;2023-05-29T01:10:05;101676.69;;;9.35;100.00
61786;BME280;47692;53.714;11.372;2023-05-29T01:12:41;101670.63;;;9.38;100.00
61786;BME280;47692;53.714;11.372;2023-05-29T01:15:22;101675.84;;;9.32;100.00
61786;BME280;47692;53.714;11.372;2023-05-29T01:20:40;101679.31;;;9.31;100.00
61786;BME280;47692;53.714;11.372;2023-05-29T01:23:29;101678.44;;;9.32;100.00
61786;BME280;47692;53.714;11.372;2023-05-29T01:28:38;101679.31;;;9.26;100.00
61786;BME280;47692;53.714;11.372;2023-05-29T01:31:07;101672.38;;;9.20;100.00
61786;BME280;47692;53.714;11.372;2023-05-29T01:33:32;101680.19;;;9.28;100.00
61786;BME280;47692;53.714;11.372;2023-05-29T01:35:57;101675.84;;;9.32;100.00
61786;BME280;47692;53.714;11.372;2023-05-29T01:38:23;101683.66;;;9.33;100.00
61786;BME280;47692;53.714;11.372;2023-05-29T01:40:48;101680.19;;;9.33;100.00
61786;BME280;47692;53.714;11.372;2023-05-29T01:43:14;101682.81;;;9.31;100.00
61786;BME280;47692;53.714;11.372;2023-05-29T01:45:40;101685.41;;;9.28;100.00
61786;BME280;47692;53.714;11.372;2023-05-29T01:48:06;101676.69;;;9.26;100.00
61786;BME280;47692;53.714;11.372;2023-05-29T01:50:32;101685.41;;;9.25;100.00
61786;BME280;47692;53.714;11.372;2023-05-29T01:52:58;101687.16;;;9.23;100.00
61786;BME280;47692;53.714;11.372;2023-05-29T01:55:23;101690.63;;;9.16;100.00
61786;BME280;47692;53.714;11.372;2023-05-29T01:57:49;101687.16;;;9.11;100.00
61786;BME280;47692;53.714;11.372;2023-05-29T02:00:16;101693.25;;;9.10;100.00
61786;BME280;47692;53.714;11.372;2023-05-29T02:02:42;101688.03;;;9.07;100.00
61786;BME280;47692;53.714;11.372;2023-05-29T02:05:08;101689.78;;;9.03;100.00
61786;BME280;47692;53.714;11.372;2023-05-29T02:07:36;101690.63;;;8.97;100.00
61786;BME280;47692;53.714;11.372;2023-05-29T02:10:05;101687.19;;;8.86;100.00
61786;BME280;47692;53.714;11.372;2023-05-29T02:12:31;101681.09;;;8.82;100.00
61786;BME280;47692;53.714;11.372;2023-05-29T02:14:56;101684.59;;;8.77;100.00
61786;BME280;47692;53.714;11.372;2023-05-29T02:17:22;101677.63;;;8.71;100.00
61786;BME280;47692;53.714;11.372;2023-05-29T02:19:47;101678.50;;;8.68;100.00
61786;BME280;47692;53.714;11.372;2023-05-29T02:22:13;101678.50;;;8.61;100.00
61786;BME280;47692;53.714;11.372;2023-05-29T02:24:38;101682.81;;;8.46;100.00
61786;BME280;47692;53.714;11.372;2023-05-29T02:27:04;101681.03;;;8.39;100.00
61786;BME280;47692;53.714;11.372;2023-05-29T02:29:29;101691.44;;;8.36;100.00
61786;BME280;47692;53.714;11.372;2023-05-29T02:31:55;101688.81;;;8.30;100.00
61786;BME280;47692;53.714;11.372;2023-05-29T02:34:20;101695.75;;;8.26;100.00
61786;BME280;47692;53.714;11.372;2023-05-29T02:36:48;101697.50;;;8.27;100.00
61786;BME280;47692;53.714;11.372;2023-05-29T02:39:13;101697.47;;;8.24;100.00
61786;BME280;47692;53.714;11.372;2023-05-29T02:41:38;101687.06;;;8.21;100.00
61786;BME280;47692;53.714;11.372;2023-05-29T02:44:04;101685.34;;;8.20;100.00
61786;BME280;47692;53.714;11.372;2023-05-29T02:46:29;101678.41;;;8.22;100.00
61786;BME280;47692;53.714;11.372;2023-05-29T02:48:55;101685.31;;;8.23;100.00
61786;BME280;47692;53.714;11.372;2023-05-29T02:51:20;101692.28;;;8.21;100.00
61786;BME280;47692;53.714;11.372;2023-05-29T02:53:45;101683.59;;;8.19;100.00
61786;BME280;47692;53.714;11.372;2023-05-29T02:56:11;101685.31;;;8.14;100.00
61786;BME280;47692;53.714;11.372;2023-05-29T02:58:37;101687.03;;;8.12;100.00
61786;BME280;47692;53.714;11.372;2023-05-29T03:01:02;101692.25;;;8.15;100.00
61786;BME280;47692;53.714;11.372;2023-05-29T03:03:29;101693.13;;;8.14;100.00
61786;BME280;47692;53.714;11.372;2023-05-29T03:05:54;101700.94;;;8.11;100.00
61786;BME280;47692;53.714;11.372;2023-05-29T03:08:20;101698.31;;;8.04;100.00
61786;BME280;47692;53.714;11.372;2023-05-29T03:10:45;101702.63;;;8.05;100.00
61786;BME280;47692;53.714;11.372;2023-05-29T03:13:12;101701.75;;;8.06;100.00
61786;BME280;47692;53.714;11.372;2023-05-29T03:15:37;101699.16;;;8.05;100.00
61786;BME280;47692;53.714;11.372;2023-05-29T03:18:03;101707.84;;;8.08;100.00
61786;BME280;47692;53.714;11.372;2023-05-29T03:20:28;101714.78;;;8.09;100.00
61786;BME280;47692;53.714;11.372;2023-05-29T03:22:53;101712.16;;;8.03;100.00
61786;BME280;47692;53.714;11.372;2023-05-29T03:25:20;101715.59;;;7.98;100.00
61786;BME280;47692;53.714;11.372;2023-05-29T03:27:45;101711.28;;;7.98;100.00
61786;BME280;47692;53.714;11.372;2023-05-29T03:30:11;101713.03;;;8.05;100.00
61786;BME280;47692;53.714;11.372;2023-05-29T03:32:37;101721.72;;;8.11;100.00
61786;BME280;47692;53.714;11.372;2023-05-29T03:35:02;101720.84;;;8.07;100.00
61786;BME280;47692;53.714;11.372;2023-05-29T03:37:29;101714.78;;;8.09;100.00
61786;BME280;47692;53.714;11.372;2023-05-29T03:39:54;101713.06;;;8.07;100.00
61786;BME280;47692;53.714;11.372;2023-05-29T03:42:20;101710.47;;;8.13;100.00
61786;BME280;47692;53.714;11.372;2023-05-29T03:44:45;101713.06;;;8.15;100.00
61786;BME280;47692;53.714;11.372;2023-05-29T03:47:10;101716.56;;;8.17;100.00
61786;BME280;47692;53.714;11.372;2023-05-29T03:49:36;101714.81;;;8.19;100.00
61786;BME280;47692;53.714;11.372;2023-05-29T03:52:01;101725.22;;;8.19;100.00
61786;BME280;47692;53.714;11.372;2023-05-29T03:54:27;101726.06;;;8.15;100.00
61786;BME280;47692;53.714;11.372;2023-05-29T03:56:52;101725.22;;;8.16;100.00
61786;BME280;47692;53.714;11.372;2023-05-29T03:59:17;101730.41;;;8.19;100.00
61786;BME280;47692;53.714;11.372;2023-05-29T04:01:43;101727.81;;;8.19;100.00
61786;BME280;47692;53.714;11.372;2023-05-29T04:04:08;101724.38;;;8.26;100.00
61786;BME280;47692;53.714;11.372;2023-05-29T04:06:33;101720.03;;;8.31;100.00
61786;BME280;47692;53.714;11.372;2023-05-29T04:09:04;101727.00;;;8.38;100.00
61786;BME280;47692;53.714;11.372;2023-05-29T04:11:32;101731.31;;;8.36;100.00
61786;BME280;47692;53.714;11.372;2023-05-29T04:13:59;101723.56;;;8.39;100.00
61786;BME280;47692;53.714;11.372;2023-05-29T04:16:24;101727.88;;;8.42;100.00
61786;BME280;47692;53.714;11.372;2023-05-29T04:18:50;101726.19;;;8.49;100.00
61786;BME280;47692;53.714;11.372;2023-05-29T04:21:16;101727.06;;;8.51;100.00
61786;BME280;47692;53.714;11.372;2023-05-29T04:23:41;101737.47;;;8.51;100.00
61786;BME280;47692;53.714;11.372;2023-05-29T04:26:06;101734.00;;;8.49;100.00
61786;BME280;47692;53.714;11.372;2023-05-29T04:28:32;101735.75;;;8.56;100.00
61786;BME280;47692;53.714;11.372;2023-05-29T04:30:57;101739.25;;;8.58;100.00
61786;BME280;47692;53.714;11.372;2023-05-29T04:33:22;101734.03;;;8.61;100.00
61786;BME280;47692;53.714;11.372;2023-05-29T04:35:50;101733.16;;;8.62;100.00
61786;BME280;47692;53.714;11.372;2023-05-29T04:38:16;101741.84;;;8.67;100.00
61786;BME280;47692;53.714;11.372;2023-05-29T04:40:42;101742.72;;;8.72;100.00
61786;BME280;47692;53.714;11.372;2023-05-29T04:43:08;101744.47;;;8.77;100.00
61786;BME280;47692;53.714;11.372;2023-05-29T04:45:34;101745.34;;;8.77;100.00
61786;BME280;47692;53.714;11.372;2023-05-29T04:48:02;101744.47;;;8.83;100.00
61786;BME280;47692;53.714;11.372;2023-05-29T04:50:27;101741.88;;;8.86;100.00
61786;BME280;47692;53.714;11.372;2023-05-29T04:52:56;101745.34;;;8.91;100.00
61786;BME280;47692;53.714;11.372;2023-05-29T04:55:22;101749.69;;;8.95;100.00
61786;BME280;47692;53.714;11.372;2023-05-29T04:57:48;101749.69;;;9.01;100.00
61786;BME280;47692;53.714;11.372;2023-05-29T05:00:13;101756.63;;;9.12;100.00
61786;BME280;47692;53.714;11.372;2023-05-29T05:02:41;101765.31;;;9.18;100.00
61786;BME280;47692;53.714;11.372;2023-05-29T05:05:08;101768.78;;;9.22;100.00
61786;BME280;47692;53.714;11.372;2023-05-29T05:07:33;101763.56;;;9.28;100.00
61786;BME280;47692;53.714;11.372;2023-05-29T05:09:59;101764.44;;;9.38;100.00
61786;BME280;47692;53.714;11.372;2023-05-29T05:12:24;101770.50;;;9.45;100.00
61786;BME280;47692;53.714;11.372;2023-05-29T05:14:49;101767.03;;;9.49;100.00
61786;BME280;47692;53.714;11.372;2023-05-29T05:17:14;101767.91;;;9.54;100.00
61786;BME280;47692;53.714;11.372;2023-05-29T05:19:40;101767.03;;;9.61;100.00
61786;BME280;47692;53.714;11.372;2023-05-29T05:22:06;101760.06;;;9.66;100.00
61786;BME280;47692;53.714;11.372;2023-05-29T05:24:31;101763.53;;;9.75;99.74
61786;BME280;47692;53.714;11.372;2023-05-29T05:26:57;101766.97;;;9.77;99.61
61786;BME280;47692;53.714;11.372;2023-05-29T05:29:22;101767.81;;;9.82;99.37
61786;BME280;47692;53.714;11.372;2023-05-29T05:31:47;101772.16;;;9.89;100.00
61786;BME280;47692;53.714;11.372;2023-05-29T05:34:13;101775.63;;;9.94;99.06
61786;BME280;47692;53.714;11.372;2023-05-29T05:36:38;101771.25;;;10.01;98.93
61786;BME280;47692;53.714;11.372;2023-05-29T05:39:03;101775.56;;;10.07;98.80
61786;BME280;47692;53.714;11.372;2023-05-29T05:41:30;101770.34;;;10.16;98.15
61786;BME280;47692;53.714;11.372;2023-05-29T05:43:56;101774.66;;;10.20;97.15
61786;BME280;47692;53.714;11.372;2023-05-29T05:46:21;101770.28;;;10.25;97.13
61786;BME280;47692;53.714;11.372;2023-05-29T05:48:46;101765.06;;;10.28;96.88
61786;BME280;47692;53.714;11.372;2023-05-29T05:51:12;101770.25;;;10.30;95.35
61786;BME280;47692;53.714;11.372;2023-05-29T05:53:37;101771.97;;;10.35;93.89
61786;BME280;47692;53.714;11.372;2023-05-29T05:56:03;101781.56;;;10.37;93.53
61786;BME280;47692;53.714;11.372;2023-05-29T05:58:28;101777.22;;;10.39;93.90
61786;BME280;47692;53.714;11.372;2023-05-29T06:00:53;101783.25;;;10.45;93.78
61786;BME280;47692;53.714;11.372;2023-05-29T06:03:19;101770.19;;;10.53;94.17
61786;BME280;47692;53.714;11.372;2023-05-29T06:05:44;101766.59;;;10.66;94.95
61786;BME280;47692;53.714;11.372;2023-05-29T06:08:09;101779.63;;;10.73;93.55
61786;BME280;47692;53.714;11.372;2023-05-29T06:10:35;101778.78;;;10.67;90.96
61786;BME280;47692;53.714;11.372;2023-05-29T06:13:01;101777.91;;;10.70;91.38
61786;BME280;47692;53.714;11.372;2023-05-29T06:15:26;101776.16;;;10.69;91.03
61786;BME280;47692;53.714;11.372;2023-05-29T06:17:52;101779.56;;;10.79;91.70
61786;BME280;47692;53.714;11.372;2023-05-29T06:20:17;101779.50;;;10.91;91.44
61786;BME280;47692;53.714;11.372;2023-05-29T06:22:42;101776.88;;;10.94;90.11
61786;BME280;47692;53.714;11.372;2023-05-29T06:25:08;101787.28;;;10.97;89.84
61786;BME280;47692;53.714;11.372;2023-05-29T06:27:34;101789.06;;;10.95;89.28
61786;BME280;47692;53.714;11.372;2023-05-29T06:30:00;101788.13;;;11.01;89.52
61786;BME280;47692;53.714;11.372;2023-05-29T06:32:25;101792.41;;;11.10;90.15
61786;BME280;47692;53.714;11.372;2023-05-29T06:34:53;101795.94;;;11.06;89.02
61786;BME280;47692;53.714;11.372;2023-05-29T06:37:18;101799.28;;;11.23;90.92
61786;BME280;47692;53.714;11.372;2023-05-29T06:39:44;101806.25;;;11.24;89.87
61786;BME280;47692;53.714;11.372;2023-05-29T06:42:10;101814.09;;;11.26;89.01
61786;BME280;47692;53.714;11.372;2023-05-29T06:44:35;101814.09;;;11.24;88.56
61786;BME280;47692;53.714;11.372;2023-05-29T06:47:01;101807.09;;;11.29;89.00
61786;BME280;47692;53.714;11.372;2023-05-29T06:49:26;101801.81;;;11.34;88.40
61786;BME280;47692;53.714;11.372;2023-05-29T06:51:51;101809.59;;;11.42;89.48
61786;BME280;47692;53.714;11.372;2023-05-29T06:54:17;101801.78;;;11.37;89.19
61786;BME280;47692;53.714;11.372;2023-05-29T06:56:42;101800.94;;;11.37;87.93
61786;BME280;47692;53.714;11.372;2023-05-29T06:59:07;101804.47;;;11.32;87.93
61786;BME280;47692;53.714;11.372;2023-05-29T07:01:33;101806.97;;;11.42;87.59
61786;BME280;47692;53.714;11.372;2023-05-29T07:03:58;101807.78;;;11.50;88.19
61786;BME280;47692;53.714;11.372;2023-05-29T07:06:23;101811.28;;;11.46;88.54
61786;BME280;47692;53.714;11.372;2023-05-29T07:08:49;101811.19;;;11.58;89.44
61786;BME280;47692;53.714;11.372;2023-05-29T07:11:14;101806.81;;;11.57;87.57
61786;BME280;47692;53.714;11.372;2023-05-29T07:13:40;101804.16;;;11.63;86.88
61786;BME280;47692;53.714;11.372;2023-05-29T07:16:05;101808.47;;;11.69;86.52
61786;BME280;47692;53.714;11.372;2023-05-29T07:18:30;101800.53;;;11.80;85.74
61786;BME280;47692;53.714;11.372;2023-05-29T07:20:56;101808.22;;;11.94;85.71
61786;BME280;47692;53.714;11.372;2023-05-29T07:23:22;101811.59;;;12.05;85.75
61786;BME280;47692;53.714;11.372;2023-05-29T07:25:47;101813.31;;;12.11;86.66
61786;BME280;47692;53.714;11.372;2023-05-29T07:28:12;101811.50;;;12.13;85.83
61786;BME280;47692;53.714;11.372;2023-05-29T07:30:38;101822.84;;;12.15;85.94
61786;BME280;47692;53.714;11.372;2023-05-29T07:33:03;101814.03;;;12.22;85.01
61786;BME280;47692;53.714;11.372;2023-05-29T07:35:28;101814.91;;;12.21;84.35
61786;BME280;47692;53.714;11.372;2023-05-29T07:37:53;101814.03;;;12.22;84.63
61786;BME280;47692;53.714;11.372;2023-05-29T07:40:19;101813.84;;;12.38;84.93
61786;BME280;47692;53.714;11.372;2023-05-29T07:42:45;101821.38;;;12.63;85.89
61786;BME280;47692;53.714;11.372;2023-05-29T07:45:10;101825.75;;;12.62;83.56
61786;BME280;47692;53.714;11.372;2023-05-29T07:47:36;101835.34;;;12.61;82.43
61786;BME280;47692;53.714;11.372;2023-05-29T07:50:01;101830.09;;;12.63;81.72
61786;BME280;47692;53.714;11.372;2023-05-29T07:52:27;101835.25;;;12.68;79.96
61786;BME280;47692;53.714;11.372;2023-05-29T07:54:52;101830.78;;;12.76;79.79
61786;BME280;47692;53.714;11.372;2023-05-29T07:57:17;101830.72;;;12.82;79.39
61786;BME280;47692;53.714;11.372;2023-05-29T07:59:43;101827.22;;;12.80;79.08
61786;BME280;47692;53.714;11.372;2023-05-29T08:02:08;101819.44;;;12.77;78.49
61786;BME280;47692;53.714;11.372;2023-05-29T08:04:34;101829.94;;;12.74;78.80
61786;BME280;47692;53.714;11.372;2023-05-29T08:07:00;101816.91;;;12.68;79.81
61786;BME280;47692;53.714;11.372;2023-05-29T08:09:26;101820.22;;;12.82;81.65
61786;BME280;47692;53.714;11.372;2023-05-29T08:11:51;101822.75;;;12.88;81.62
61786;BME280;47692;53.714;11.372;2023-05-29T08:14:17;101819.28;;;12.86;78.31
61786;BME280;47692;53.714;11.372;2023-05-29T08:16:42;101823.69;;;12.84;76.41
61786;BME280;47692;53.714;11.372;2023-05-29T08:19:08;101825.47;;;12.82;77.07
61786;BME280;47692;53.714;11.372;2023-05-29T08:21:33;101818.38;;;12.90;75.31
61786;BME280;47692;53.714;11.372;2023-05-29T08:23:59;101823.28;;;13.09;73.42
61786;BME280;47692;53.714;11.372;2023-05-29T08:26:25;101821.50;;;13.14;72.35
61786;BME280;47692;53.714;11.372;2023-05-29T08:28:51;101832.81;;;13.18;72.25
61786;BME280;47692;53.714;11.372;2023-05-29T08:31:16;101824.03;;;13.20;69.05
61786;BME280;47692;53.714;11.372;2023-05-29T08:33:41;101827.50;;;13.21;69.66
61786;BME280;47692;53.714;11.372;2023-05-29T08:36:07;101830.97;;;13.23;70.78
61786;BME280;47692;53.714;11.372;2023-05-29T08:38:34;101840.53;;;13.25;72.05
61786;BME280;47692;53.714;11.372;2023-05-29T08:40:59;101826.38;;;13.36;73.14
61786;BME280;47692;53.714;11.372;2023-05-29T08:43:28;101843.78;;;13.43;72.73
61786;BME280;47692;53.714;11.372;2023-05-29T08:45:59;101842.72;;;13.53;71.25
61786;BME280;47692;53.714;11.372;2023-05-29T08:48:24;101837.59;;;13.47;68.39
61786;BME280;47692;53.714;11.372;2023-05-29T08:50:53;101834.16;;;13.44;68.60
61786;BME280;47692;53.714;11.372;2023-05-29T08:53:20;101837.50;;;13.52;68.19
61786;BME280;47692;53.714;11.372;2023-05-29T08:55:47;101839.97;;;13.63;70.11
61786;BME280;47692;53.714;11.372;2023-05-29T08:58:14;101848.50;;;13.74;66.97
61786;BME280;47692;53.714;11.372;2023-05-29T09:00:40;101842.25;;;13.80;67.27
61786;BME280;47692;53.714;11.372;2023-05-29T09:03:07;101841.28;;;13.85;69.15
61786;BME280;47692;53.714;11.372;2023-05-29T09:05:32;101837.78;;;13.86;67.69
61786;BME280;47692;53.714;11.372;2023-05-29T09:07:58;101839.66;;;13.78;65.18
61786;BME280;47692;53.714;11.372;2023-05-29T09:10:24;101846.66;;;13.79;66.07
61786;BME280;47692;53.714;11.372;2023-05-29T09:12:52;101843.94;;;13.84;66.57
61786;BME280;47692;53.714;11.372;2023-05-29T09:15:20;101849.72;;;14.03;63.61
61786;BME280;47692;53.714;11.372;2023-05-29T09:17:56;101852.41;;;13.98;63.26
61786;BME280;47692;53.714;11.372;2023-05-29T09:20:23;101847.97;;;14.02;65.35
61786;BME280;47692;53.714;11.372;2023-05-29T09:25:22;101845.16;;;14.13;64.92
61786;BME280;47692;53.714;11.372;2023-05-29T09:27:55;101840.63;;;14.19;63.64
61786;BME280;47692;53.714;11.372;2023-05-29T09:32:57;101847.44;;;14.30;62.01
61786;BME280;47692;53.714;11.372;2023-05-29T09:35:23;101854.59;;;14.21;60.20
61786;BME280;47692;53.714;11.372;2023-05-29T09:37:48;101855.56;;;14.17;59.93
61786;BME280;47692;53.714;11.372;2023-05-29T09:40:15;101854.53;;;14.25;61.28
61786;BME280;47692;53.714;11.372;2023-05-29T09:42:40;101856.75;;;14.46;63.26
61786;BME280;47692;53.714;11.372;2023-05-29T09:45:06;101864.75;;;14.40;59.92
61786;BME280;47692;53.714;11.372;2023-05-29T09:47:35;101862.25;;;14.34;60.86
61786;BME280;47692;53.714;11.372;2023-05-29T09:50:00;101857.84;;;14.34;62.92
61786;BME280;47692;53.714;11.372;2023-05-29T09:52:28;101861.22;;;14.41;64.69
61786;BME280;47692;53.714;11.372;2023-05-29T09:54:55;101861.78;;;14.55;62.24
61786;BME280;47692;53.714;11.372;2023-05-29T09:57:22;101864.28;;;14.63;62.36
61786;BME280;47692;53.714;11.372;2023-05-29T09:59:49;101865.03;;;14.70;61.60
61786;BME280;47692;53.714;11.372;2023-05-29T10:02:17;101868.97;;;14.90;60.26
61786;BME280;47692;53.714;11.372;2023-05-29T10:04:42;101860.03;;;14.98;58.16
61786;BME280;47692;53.714;11.372;2023-05-29T10:07:27;101858.19;;;15.02;55.16
61786;BME280;47692;53.714;11.372;2023-05-29T10:10:06;101856.44;;;15.01;53.75
61786;BME280;47692;53.714;11.372;2023-05-29T10:12:44;101852.63;;;15.14;53.60
61786;BME280;47692;53.714;11.372;2023-05-29T10:15:13;101856.88;;;15.20;53.69
61786;BME280;47692;53.714;11.372;2023-05-29T10:17:45;101860.47;;;15.16;54.40
61786;BME280;47692;53.714;11.372;2023-05-29T10:20:13;101859.59;;;15.15;54.64
61786;BME280;47692;53.714;11.372;2023-05-29T10:22:45;101856.75;;;15.25;54.69
61786;BME280;47692;53.714;11.372;2023-05-29T10:25:13;101855.38;;;15.46;56.46
61786;BME280;47692;53.714;11.372;2023-05-29T10:27:39;101858.94;;;15.43;58.34
61786;BME280;47692;53.714;11.372;2023-05-29T10:30:10;101860.59;;;15.47;58.24
61786;BME280;47692;53.714;11.372;2023-05-29T10:38:15;101858.22;;;15.71;58.30
61786;BME280;47692;53.714;11.372;2023-05-29T10:40:44;101850.88;;;15.86;57.42
61786;BME280;47692;53.714;11.372;2023-05-29T10:43:32;101849.38;;;15.75;57.50
61786;BME280;47692;53.714;11.372;2023-05-29T10:45:58;101843.88;;;15.85;58.79
61786;BME280;47692;53.714;11.372;2023-05-29T10:50:56;101843.88;;;15.85;59.38
61786;BME280;47692;53.714;11.372;2023-05-29T10:53:31;101835.56;;;16.00;56.57
61786;BME280;47692;53.714;11.372;2023-05-29T10:55:59;101839.84;;;16.04;56.40
61786;BME280;47692;53.714;11.372;2023-05-29T10:58:25;101828.69;;;16.26;57.25
61786;BME280;47692;53.714;11.372;2023-05-29T11:00:52;101826.88;;;16.28;55.08
61786;BME280;47692;53.714;11.372;2023-05-29T11:03:30;101819.50;;;16.39;54.14
61786;BME280;47692;53.714;11.372;2023-05-29T11:06:07;101823.22;;;16.32;52.06
61786;BME280;47692;53.714;11.372;2023-05-29T11:08:47;101827.28;;;16.12;52.65
61786;BME280;47692;53.714;11.372;2023-05-29T11:11:28;101820.00;;;16.22;53.09
61786;BME280;47692;53.714;11.372;2023-05-29T11:13:55;101827.16;;;16.48;53.11
61786;BME280;47692;53.714;11.372;2023-05-29T11:18:59;101822.81;;;16.76;51.52
61786;BME280;47692;53.714;11.372;2023-05-29T11:24:17;101818.13;;;16.56;48.22
61786;BME280;47692;53.714;11.372;2023-05-29T11:26:45;101821.13;;;16.43;49.04
61786;BME280;47692;53.714;11.372;2023-05-29T11:29:12;101819.06;;;16.55;48.38
61786;BME280;47692;53.714;11.372;2023-05-29T11:31:40;101813.03;;;16.51;49.40
61786;BME280;47692;53.714;11.372;2023-05-29T11:34:09;101820.16;;;16.47;48.78
61786;BME280;47692;53.714;11.372;2023-05-29T11:36:35;101814.06;;;16.45;49.19
61786;BME280;47692;53.714;11.372;2023-05-29T11:39:02;101811.75;;;16.63;49.59
61786;BME280;47692;53.714;11.372;2023-05-29T11:41:28;101821.69;;;16.55;47.23
61786;BME280;47692;53.714;11.372;2023-05-29T11:44:01;101827.94;;;16.51;47.96
61786;BME280;47692;53.714;11.372;2023-05-29T11:46:27;101827.69;;;16.60;49.29
61786;BME280;47692;53.714;11.372;2023-05-29T11:48:56;101833.34;;;16.47;49.77
61786;BME280;47692;53.714;11.372;2023-05-29T11:51:21;101836.75;;;16.50;51.58
61786;BME280;47692;53.714;11.372;2023-05-29T11:53:48;101833.81;;;16.60;50.69
61786;BME280;47692;53.714;11.372;2023-05-29T11:56:13;101832.66;;;16.69;49.04
61786;BME280;47692;53.714;11.372;2023-05-29T11:58:39;101829.97;;;16.71;48.60
61786;BME280;47692;53.714;11.372;2023-05-29T12:01:06;101825.91;;;16.60;46.44
61786;BME280;47692;53.714;11.372;2023-05-29T12:03:42;101819.28;;;16.75;47.18
61786;BME280;47692;53.714;11.372;2023-05-29T12:06:09;101820.91;;;16.79;44.87
61786;BME280;47692;53.714;11.372;2023-05-29T12:08:38;101822.75;;;16.77;44.09
61786;BME280;47692;53.714;11.372;2023-05-29T12:11:05;101815.69;;;16.78;45.83
61786;BME280;47692;53.714;11.372;2023-05-29T12:13:30;101821.00;;;17.06;46.20
61786;BME280;47692;53.714;11.372;2023-05-29T12:15:57;101819.94;;;17.12;47.49
61786;BME280;47692;53.714;11.372;2023-05-29T12:18:27;101803.91;;;17.18;46.71
61786;BME280;47692;53.714;11.372;2023-05-29T12:21:00;101805.75;;;17.41;44.90
61786;BME280;47692;53.714;11.372;2023-05-29T12:23:30;101805.66;;;17.44;42.12
61786;BME280;47692;53.714;11.372;2023-05-29T12:25:56;101803.06;;;17.68;43.75
61786;BME280;47692;53.714;11.372;2023-05-29T12:28:23;101808.22;;;17.71;45.49
61786;BME280;47692;53.714;11.372;2023-05-29T12:30:49;101808.44;;;17.65;46.05
61786;BME280;47692;53.714;11.372;2023-05-29T12:33:34;101801.56;;;17.61;46.21
61786;BME280;47692;53.714;11.372;2023-05-29T12:36:06;101799.94;;;17.82;47.37
61786;BME280;47692;53.714;11.372;2023-05-29T12:38:35;101803.72;;;17.75;49.42
61786;BME280;47692;53.714;11.372;2023-05-29T12:41:06;101796.59;;;18.02;48.70
61786;BME280;47692;53.714;11.372;2023-05-29T12:43:32;101800.34;;;17.97;47.43
61786;BME280;47692;53.714;11.372;2023-05-29T12:45:57;101812.44;;;18.02;47.10
61786;BME280;47692;53.714;11.372;2023-05-29T12:48:26;101803.59;;;18.03;47.24
61786;BME280;47692;53.714;11.372;2023-05-29T12:50:52;101802.09;;;18.20;47.72
61786;BME280;47692;53.714;11.372;2023-05-29T12:53:17;101806.47;;;18.21;49.10
61786;BME280;47692;53.714;11.372;2023-05-29T12:55:44;101804.97;;;18.37;49.17
61786;BME280;47692;53.714;11.372;2023-05-29T12:58:13;101798.28;;;18.51;48.31
61786;BME280;47692;53.714;11.372;2023-05-29T13:00:40;101802.09;;;18.44;48.50
61786;BME280;47692;53.714;11.372;2023-05-29T13:03:06;101798.97;;;18.56;48.43